createdAt,value
2018-03-04T00:01:11.726Z,5.82
2018-03-04T00:03:40.234Z,5.74
2018-03-04T00:06:08.745Z,5.73
2018-03-04T00:08:37.213Z,5.58
2018-03-04T00:11:05.696Z,5.71
2018-03-04T00:13:34.216Z,5.75
2018-03-04T00:16:02.722Z,5.74
2018-03-04T00:18:31.234Z,5.63
2018-03-04T00:20:59.742Z,5.69
2018-03-04T00:23:28.263Z,5.75
2018-03-04T00:25:56.805Z,5.72
2018-03-04T00:28:25.310Z,5.72
2018-03-04T00:30:53.832Z,5.33
2018-03-04T00:33:22.331Z,5.54
2018-03-04T00:35:50.826Z,5.66
2018-03-04T00:38:19.318Z,5.60
2018-03-04T00:40:47.822Z,5.59
2018-03-04T00:43:16.290Z,5.68
2018-03-04T00:45:44.804Z,5.65
2018-03-04T00:48:13.311Z,5.50
2018-03-04T00:50:41.814Z,5.53
2018-03-04T00:53:10.315Z,5.73
2018-03-04T00:55:38.773Z,5.74
2018-03-04T00:58:07.274Z,5.54
2018-03-04T01:00:35.769Z,5.61
2018-03-04T01:03:04.287Z,5.88
2018-03-04T01:05:32.750Z,5.97
2018-03-04T01:08:01.239Z,6.01
2018-03-04T01:10:29.769Z,6.03
2018-03-04T01:12:58.274Z,6.08
2018-03-04T01:15:26.775Z,6.08
2018-03-04T01:17:55.270Z,6.16
2018-03-04T01:20:23.767Z,5.98
2018-03-04T01:22:52.246Z,5.92
2018-03-04T01:25:20.702Z,6.04
2018-03-04T01:27:49.212Z,5.89
2018-03-04T01:30:17.719Z,5.87
2018-03-04T01:32:46.186Z,5.70
2018-03-04T01:35:14.754Z,5.91
2018-03-04T01:37:43.238Z,5.88
2018-03-04T01:40:11.721Z,5.73
2018-03-04T01:42:40.234Z,5.69
2018-03-04T01:45:08.675Z,5.84
2018-03-04T01:47:37.202Z,5.88
2018-03-04T01:50:05.729Z,5.77
2018-03-04T01:52:34.248Z,5.76
2018-03-04T01:55:02.718Z,5.78
2018-03-04T01:57:31.188Z,5.78
2018-03-04T01:59:59.694Z,5.74
2018-03-04T02:02:28.150Z,5.58
2018-03-04T02:04:56.663Z,5.70
2018-03-04T02:07:25.199Z,5.71
2018-03-04T02:09:53.658Z,5.57
2018-03-04T02:12:22.158Z,5.66
2018-03-04T02:14:50.653Z,5.67
2018-03-04T02:17:19.145Z,5.64
2018-03-04T02:19:47.610Z,5.38
2018-03-04T02:22:16.125Z,5.53
2018-03-04T02:24:44.599Z,5.59
2018-03-04T02:27:13.122Z,5.55
2018-03-04T02:29:41.590Z,5.63
2018-03-04T02:32:10.157Z,5.66
2018-03-04T02:34:38.681Z,5.64
2018-03-04T02:37:07.184Z,5.63
2018-03-04T02:39:35.650Z,5.47
2018-03-04T02:42:04.267Z,5.15
2018-03-04T02:44:32.779Z,5.09
2018-03-04T02:47:01.254Z,5.30
2018-03-04T02:49:29.767Z,5.35
2018-03-04T02:51:58.243Z,5.37
2018-03-04T02:54:26.747Z,5.33
2018-03-04T02:56:55.243Z,5.10
2018-03-04T02:59:23.726Z,5.06
2018-03-04T03:01:52.190Z,5.11
2018-03-04T03:04:20.683Z,4.96
2018-03-04T03:06:49.202Z,5.05
2018-03-04T03:09:17.680Z,5.04
2018-03-04T03:11:46.182Z,5.06
2018-03-04T03:14:14.646Z,5.23
2018-03-04T03:16:43.150Z,5.33
2018-03-04T03:19:11.622Z,5.43
2018-03-04T03:21:40.086Z,5.51
2018-03-04T03:24:08.585Z,5.48
2018-03-04T03:26:37.083Z,5.48
2018-03-04T03:29:05.627Z,5.59
2018-03-04T03:31:34.088Z,5.37
2018-03-04T03:34:02.586Z,5.43
2018-03-04T03:36:31.088Z,5.62
2018-03-04T03:38:59.568Z,5.66
2018-03-04T03:41:28.076Z,5.57
2018-03-04T03:43:56.541Z,5.73
2018-03-04T03:46:25.047Z,5.51
2018-03-04T03:48:53.505Z,5.43
2018-03-04T03:51:21.966Z,5.49
2018-03-04T03:53:50.476Z,5.47
2018-03-04T03:56:18.966Z,5.39
2018-03-04T03:58:47.470Z,5.43
2018-03-04T04:01:15.977Z,5.15
2018-03-04T04:03:44.482Z,5.17
2018-03-04T04:06:12.947Z,5.33
2018-03-04T04:08:41.460Z,5.34
2018-03-04T04:11:09.958Z,5.58
2018-03-04T04:13:38.418Z,5.39
2018-03-04T04:16:06.953Z,5.53
2018-03-04T04:18:35.429Z,5.67
2018-03-04T04:21:03.952Z,5.70
2018-03-04T04:23:32.447Z,5.73
2018-03-04T04:26:00.937Z,5.79
2018-03-04T04:28:29.477Z,5.82
2018-03-04T04:30:57.973Z,5.75
2018-03-04T04:33:26.466Z,5.66
2018-03-04T04:35:54.962Z,5.55
2018-03-04T04:38:23.414Z,5.72
2018-03-04T04:40:51.909Z,5.70
2018-03-04T04:43:20.417Z,5.60
2018-03-04T04:45:48.884Z,5.74
2018-03-04T04:48:17.341Z,5.43
2018-03-04T04:50:45.855Z,5.36
2018-03-04T04:53:14.335Z,5.52
2018-03-04T04:55:42.833Z,5.49
2018-03-04T04:58:11.302Z,5.60
2018-03-04T05:00:39.813Z,5.68
2018-03-04T05:03:08.273Z,5.77
2018-03-04T05:05:36.908Z,5.81
2018-03-04T05:08:05.365Z,5.65
2018-03-04T05:10:33.885Z,5.80
2018-03-04T05:13:02.342Z,5.87
2018-03-04T05:15:30.822Z,5.78
2018-03-04T05:17:59.314Z,5.58
2018-03-04T05:20:27.778Z,5.41
2018-03-04T05:22:56.287Z,5.38
2018-03-04T05:25:24.786Z,5.42
2018-03-04T05:27:53.298Z,5.28
2018-03-04T05:30:21.753Z,5.27
2018-03-04T05:32:50.250Z,5.32
2018-03-04T05:35:18.723Z,5.36
2018-03-04T05:37:47.266Z,5.48
2018-03-04T05:40:15.707Z,5.47
2018-03-04T05:42:44.162Z,5.66
2018-03-04T05:45:12.674Z,5.75
2018-03-04T05:47:41.174Z,5.75
2018-03-04T05:50:09.649Z,5.85
2018-03-04T05:52:38.206Z,5.99
2018-03-04T05:55:06.717Z,5.91
2018-03-04T05:57:35.192Z,6.08
2018-03-04T06:00:03.678Z,5.92
2018-03-04T06:02:33.138Z,6.18
2018-03-04T06:05:01.591Z,6.34
2018-03-04T06:07:30.059Z,6.42
2018-03-04T06:09:58.598Z,6.49
2018-03-04T06:12:27.118Z,6.65
2018-03-04T06:14:55.582Z,6.65
2018-03-04T06:17:24.046Z,6.48
2018-03-04T06:19:52.548Z,6.64
2018-03-04T06:22:21.015Z,7.00
2018-03-04T06:24:49.495Z,7.26
2018-03-04T06:27:17.986Z,7.53
2018-03-04T06:29:46.512Z,7.70
2018-03-04T06:32:15.018Z,7.76
2018-03-04T06:34:43.624Z,8.04
2018-03-04T06:37:12.090Z,8.30
2018-03-04T06:39:40.600Z,8.18
2018-03-04T06:42:09.095Z,8.19
2018-03-04T06:44:37.602Z,8.28
2018-03-04T06:47:06.066Z,8.50
2018-03-04T06:49:34.585Z,8.66
2018-03-04T06:52:03.050Z,8.52
2018-03-04T06:54:31.546Z,8.48
2018-03-04T06:57:00.010Z,8.53
2018-03-04T06:59:28.519Z,8.70
2018-03-04T07:01:56.969Z,8.80
2018-03-04T07:04:25.474Z,8.77
2018-03-04T07:06:53.998Z,8.89
2018-03-04T07:09:22.453Z,8.92
2018-03-04T07:11:50.914Z,9.00
2018-03-04T07:14:19.414Z,8.99
2018-03-04T07:16:47.875Z,9.00
2018-03-04T07:19:16.337Z,9.04
2018-03-04T07:21:44.825Z,9.24
2018-03-04T07:24:13.317Z,9.35
2018-03-04T07:26:41.814Z,9.03
2018-03-04T07:29:10.314Z,9.25
2018-03-04T07:31:38.783Z,9.25
2018-03-04T07:34:07.266Z,9.22
2018-03-04T07:36:35.758Z,9.36
2018-03-04T07:39:04.281Z,9.46
2018-03-04T07:41:32.780Z,9.59
2018-03-04T07:44:01.239Z,9.72
2018-03-04T07:46:29.750Z,9.64
2018-03-04T07:48:58.206Z,9.88
2018-03-04T07:51:26.669Z,9.99
2018-03-04T07:53:55.133Z,10.11
2018-03-04T07:56:23.647Z,10.23
2018-03-04T07:58:52.170Z,10.21
2018-03-04T08:01:20.635Z,10.05
2018-03-04T08:03:49.144Z,10.13
2018-03-04T08:06:17.659Z,10.33
2018-03-04T08:08:46.127Z,10.37
2018-03-04T08:11:14.594Z,10.48
2018-03-04T08:13:43.098Z,10.60
2018-03-04T08:16:11.703Z,10.78
2018-03-04T08:18:40.194Z,10.86
2018-03-04T08:21:08.698Z,10.95
2018-03-04T08:23:37.193Z,11.21
2018-03-04T08:26:17.403Z,11.31
2018-03-04T08:28:45.903Z,11.34
2018-03-04T08:31:14.369Z,11.48
2018-03-04T08:33:42.902Z,11.54
2018-03-04T08:36:11.367Z,11.46
2018-03-04T08:38:39.830Z,11.26
2018-03-04T08:41:08.350Z,11.48
2018-03-04T08:43:36.813Z,11.49
2018-03-04T08:46:05.296Z,11.66
2018-03-04T08:48:33.782Z,11.72
2018-03-04T08:51:02.341Z,11.45
2018-03-04T08:53:30.849Z,11.54
2018-03-04T08:55:59.351Z,11.53
2018-03-04T08:58:27.818Z,11.33
2018-03-04T09:00:56.330Z,11.58
2018-03-04T09:03:24.822Z,11.37
2018-03-04T09:05:53.313Z,11.44
2018-03-04T09:08:21.817Z,11.11
2018-03-04T09:10:50.316Z,11.40
2018-03-04T09:13:18.818Z,11.37
2018-03-04T09:15:47.292Z,11.42
2018-03-04T09:18:15.803Z,11.51
2018-03-04T09:20:44.293Z,11.57
2018-03-04T09:23:12.794Z,11.30
2018-03-04T09:25:41.257Z,11.41
2018-03-04T09:28:09.719Z,11.60
2018-03-04T09:30:38.226Z,11.72
2018-03-04T09:33:06.725Z,11.76
2018-03-04T09:35:35.189Z,11.71
2018-03-04T09:38:03.730Z,11.90
2018-03-04T09:40:32.216Z,11.91
2018-03-04T09:43:00.737Z,11.78
2018-03-04T09:45:29.239Z,11.99
2018-03-04T09:47:57.788Z,12.22
2018-03-04T09:50:26.290Z,12.15
2018-03-04T09:52:54.766Z,12.14
2018-03-04T09:55:23.294Z,12.57
2018-03-04T09:57:51.780Z,12.74
2018-03-04T10:00:20.285Z,12.82
2018-03-04T10:02:48.818Z,12.94
2018-03-04T10:05:17.342Z,13.17
2018-03-04T10:07:45.822Z,12.94
2018-03-04T10:10:14.295Z,12.93
2018-03-04T10:12:42.803Z,13.05
2018-03-04T10:15:11.306Z,12.97
2018-03-04T10:17:39.789Z,12.90
2018-03-04T10:20:08.331Z,12.88
2018-03-04T10:22:36.837Z,12.98
2018-03-04T10:25:05.314Z,13.02
2018-03-04T10:27:33.834Z,13.29
2018-03-04T10:30:02.311Z,13.33
2018-03-04T10:32:30.806Z,13.40
2018-03-04T10:34:59.331Z,13.69
2018-03-04T10:37:27.826Z,13.46
2018-03-04T10:39:56.288Z,13.71
2018-03-04T10:42:24.798Z,13.84
2018-03-04T10:44:53.254Z,13.77
2018-03-04T10:47:21.752Z,13.89
2018-03-04T10:49:50.208Z,14.06
2018-03-04T10:52:18.719Z,13.83
2018-03-04T10:54:47.171Z,13.87
2018-03-04T10:57:15.654Z,13.78
2018-03-04T10:59:44.148Z,14.12
2018-03-04T11:02:17.376Z,14.21
2018-03-04T11:04:45.890Z,14.04
2018-03-04T11:07:14.398Z,14.02
2018-03-04T11:09:42.918Z,14.13
2018-03-04T11:12:11.460Z,14.24
2018-03-04T11:14:39.910Z,14.14
2018-03-04T11:17:08.415Z,13.87
2018-03-04T11:19:36.891Z,14.04
2018-03-04T11:22:05.342Z,14.08
2018-03-04T11:24:33.842Z,13.48
2018-03-04T11:27:02.354Z,13.38
2018-03-04T11:29:30.822Z,12.81
2018-03-04T11:31:59.344Z,12.84
2018-03-04T11:34:27.810Z,12.26
2018-03-04T11:36:56.326Z,12.06
2018-03-04T11:39:24.877Z,12.25
2018-03-04T11:41:53.380Z,11.70
2018-03-04T11:44:21.910Z,11.64
2018-03-04T11:46:50.378Z,11.76
2018-03-04T11:49:18.846Z,11.55
2018-03-04T11:51:47.344Z,11.42
2018-03-04T11:54:15.811Z,11.29
2018-03-04T11:56:44.319Z,11.33
2018-03-04T11:59:12.832Z,11.37
2018-03-04T12:01:41.318Z,11.57
2018-03-04T12:04:09.822Z,11.70
2018-03-04T12:06:38.276Z,11.87
2018-03-04T12:09:06.742Z,11.85
2018-03-04T12:11:35.269Z,11.85
2018-03-04T12:14:03.742Z,11.45
2018-03-04T12:16:32.268Z,11.45
2018-03-04T12:19:00.770Z,11.55
2018-03-04T12:21:29.252Z,11.51
2018-03-04T12:23:57.758Z,11.54
2018-03-04T12:26:26.295Z,11.69
2018-03-04T12:28:54.753Z,11.72
2018-03-04T12:31:23.264Z,11.79
2018-03-04T12:33:51.744Z,11.79
2018-03-04T12:36:20.223Z,11.72
2018-03-04T12:38:48.682Z,11.27
2018-03-04T12:41:17.177Z,11.68
2018-03-04T12:43:45.682Z,11.78
2018-03-04T12:46:14.146Z,11.92
2018-03-04T12:48:42.666Z,11.98
2018-03-04T12:51:11.182Z,11.93
2018-03-04T12:53:39.666Z,11.97
2018-03-04T12:56:08.179Z,12.10
2018-03-04T12:58:36.678Z,12.20
2018-03-04T13:01:05.243Z,12.25
2018-03-04T13:03:33.742Z,12.30
2018-03-04T13:06:02.215Z,12.29
2018-03-04T13:08:30.724Z,12.36
2018-03-04T13:10:59.208Z,12.40
2018-03-04T13:13:27.757Z,12.18
2018-03-04T13:15:56.229Z,12.22
2018-03-04T13:18:24.746Z,12.21
2018-03-04T13:20:53.262Z,12.04
2018-03-04T13:23:21.778Z,12.00
2018-03-04T13:25:50.293Z,12.00
2018-03-04T13:28:18.759Z,11.71
2018-03-04T13:30:47.263Z,11.61
2018-03-04T13:33:15.779Z,11.52
2018-03-04T13:35:44.282Z,11.38
2018-03-04T13:38:12.759Z,11.36
2018-03-04T13:40:41.298Z,11.32
2018-03-04T13:43:09.830Z,11.33
2018-03-04T13:45:39.102Z,11.39
2018-03-04T13:48:07.562Z,11.41
2018-03-04T13:50:36.140Z,11.22
2018-03-04T13:53:04.617Z,11.27
2018-03-04T13:55:33.089Z,11.23
2018-03-04T13:58:01.567Z,11.24
2018-03-04T14:00:30.035Z,11.21
2018-03-04T14:02:58.533Z,11.16
2018-03-04T14:12:12.539Z,10.84
2018-03-04T14:23:35.519Z,10.51
2018-03-04T14:26:16.233Z,10.54
2018-03-04T14:28:49.127Z,10.47
2018-03-04T14:31:17.582Z,10.45
2018-03-04T14:33:46.330Z,10.45
2018-03-04T14:36:14.818Z,10.38
2018-03-04T14:38:43.587Z,10.38
2018-03-04T14:41:12.366Z,10.27
2018-03-04T14:43:41.186Z,10.30
2018-03-04T14:46:09.970Z,10.33
2018-03-04T14:51:13.127Z,10.26
2018-03-04T14:53:41.994Z,10.16
2018-03-04T14:56:10.854Z,10.01
2018-03-04T14:58:44.032Z,9.90
2018-03-04T15:01:12.571Z,9.82
2018-03-04T15:03:41.046Z,9.80
2018-03-04T15:09:19.263Z,9.63
2018-03-04T15:11:52.030Z,9.42
2018-03-04T15:14:20.540Z,9.35
2018-03-04T15:16:50.750Z,9.27
2018-03-04T15:21:55.431Z,9.26
2018-03-04T15:24:23.970Z,9.26
2018-03-04T15:26:52.476Z,9.09
2018-03-04T15:29:21.799Z,9.16
2018-03-04T15:31:51.123Z,9.04
2018-03-04T15:34:21.468Z,8.96
2018-03-04T15:36:50.167Z,8.93
2018-03-04T15:39:20.327Z,8.94
2018-03-04T15:41:48.954Z,8.78
2018-03-04T15:44:17.805Z,8.88
2018-03-04T15:46:47.514Z,8.88
2018-03-04T15:49:17.726Z,8.83
2018-03-04T15:51:50.058Z,8.78
2018-03-04T15:54:21.343Z,8.73
2018-03-04T15:56:49.942Z,8.66
2018-03-04T15:59:18.662Z,8.60
2018-03-04T16:04:20.540Z,8.60
2018-03-04T16:06:49.038Z,8.54
2018-03-04T16:09:17.499Z,8.50
2018-03-04T16:11:45.998Z,8.42
2018-03-04T16:14:14.460Z,8.29
2018-03-04T16:16:42.951Z,8.29
2018-03-04T16:19:11.410Z,8.29
2018-03-04T16:21:40.217Z,8.25
2018-03-04T16:24:08.692Z,8.20
2018-03-04T16:26:37.206Z,8.14
2018-03-04T16:31:38.178Z,8.08
2018-03-04T16:34:11.584Z,7.97
2018-03-04T16:36:40.848Z,7.88
2018-03-04T16:39:09.349Z,7.86
2018-03-04T16:41:39.622Z,7.79
2018-03-04T16:44:08.527Z,7.77
2018-03-04T16:46:36.981Z,7.79
2018-03-04T16:49:05.471Z,7.75
2018-03-04T16:54:06.631Z,7.78
2018-03-04T16:59:07.619Z,7.70
2018-03-04T17:01:36.398Z,7.71
2018-03-04T17:04:04.867Z,7.76
2018-03-04T17:06:37.138Z,7.77
2018-03-04T17:09:05.689Z,7.78
2018-03-04T17:11:35.871Z,7.78
2018-03-04T17:14:04.354Z,7.79
2018-03-04T17:16:32.880Z,7.79
2018-03-04T17:19:01.344Z,7.76
2018-03-04T17:21:29.802Z,7.78
2018-03-04T17:23:58.317Z,7.67
2018-03-04T17:26:26.794Z,7.72
2018-03-04T17:28:55.286Z,7.65
2018-03-04T17:31:23.790Z,7.69
2018-03-04T17:33:52.246Z,7.64
2018-03-04T17:36:20.701Z,7.61
2018-03-04T17:41:21.727Z,7.60
2018-03-04T17:43:50.473Z,7.62
2018-03-04T17:48:51.547Z,7.62
2018-03-04T17:53:53.267Z,7.62
2018-03-04T17:56:23.572Z,7.63
2018-03-04T17:58:52.063Z,7.64
2018-03-04T18:03:53.035Z,7.60
2018-03-04T18:06:21.831Z,7.43
2018-03-04T18:08:51.152Z,7.56
2018-03-04T18:11:19.618Z,7.60
2018-03-04T18:13:48.118Z,7.41
2018-03-04T18:16:16.848Z,7.34
2018-03-04T18:18:45.422Z,7.45
2018-03-04T18:21:13.897Z,7.41
2018-03-04T18:23:42.395Z,7.29
2018-03-04T18:26:11.183Z,7.28
2018-03-04T18:28:39.690Z,7.15
2018-03-04T18:31:08.186Z,7.08
2018-03-04T18:33:36.938Z,7.07
2018-03-04T18:36:05.502Z,6.97
2018-03-04T18:38:34.850Z,6.96
2018-03-04T18:41:03.373Z,6.68
2018-03-04T18:43:35.534Z,6.74
2018-03-04T18:51:09.089Z,6.62
2018-03-04T18:53:37.947Z,6.49
2018-03-04T18:56:06.410Z,6.39
2018-03-04T18:58:34.886Z,6.22
2018-03-04T19:01:03.403Z,6.21
2018-03-04T19:03:31.873Z,6.17
2018-03-04T19:06:00.333Z,5.92
2018-03-04T19:08:28.846Z,5.89
2018-03-04T19:11:18.657Z,5.91
2018-03-04T19:13:51.851Z,5.72
2018-03-04T19:16:20.379Z,5.87
2018-03-04T19:18:52.539Z,5.87
2018-03-04T19:21:21.302Z,5.99
2018-03-04T19:23:50.047Z,5.90
2018-03-04T19:26:18.789Z,5.95
2018-03-04T19:31:19.801Z,6.08
2018-03-04T19:33:48.298Z,6.11
2018-03-04T19:36:16.813Z,6.08
2018-03-04T19:38:45.279Z,6.19
2018-03-04T19:43:46.426Z,6.20
2018-03-04T19:46:14.904Z,6.26
2018-03-04T19:48:45.320Z,6.29
2018-03-04T19:51:13.782Z,6.29
2018-03-04T19:53:42.315Z,6.20
2018-03-04T19:56:10.782Z,6.21
2018-03-04T19:58:39.250Z,6.23
2018-03-04T20:01:07.732Z,6.19
2018-03-04T20:03:36.482Z,6.02
2018-03-04T20:06:04.982Z,5.76
2018-03-04T20:08:34.246Z,5.98
2018-03-04T20:11:05.126Z,5.94
2018-03-04T20:13:33.633Z,6.02
2018-03-04T20:16:02.450Z,5.99
2018-03-04T20:18:30.949Z,5.97
2018-03-04T20:20:59.456Z,5.82
2018-03-04T20:23:28.231Z,5.80
2018-03-04T20:25:56.683Z,5.93
2018-03-04T20:28:25.419Z,5.98
2018-03-04T20:30:54.123Z,6.13
2018-03-04T20:33:22.697Z,6.15
2018-03-04T20:35:51.487Z,6.25
2018-03-04T20:38:19.982Z,6.29
2018-03-04T20:40:50.954Z,6.26
2018-03-04T20:43:21.714Z,6.32
2018-03-04T20:45:53.942Z,6.43
2018-03-04T20:48:22.483Z,6.43
2018-03-04T20:50:50.971Z,6.48
2018-03-04T20:53:19.434Z,6.44
2018-03-04T20:55:47.926Z,6.35
2018-03-04T20:58:16.397Z,6.28
2018-03-04T21:00:45.229Z,6.29
2018-03-04T21:03:13.698Z,6.35
2018-03-04T21:05:42.171Z,6.20
2018-03-04T21:08:12.482Z,6.28
2018-03-04T21:10:42.489Z,6.18
2018-03-04T21:13:10.991Z,6.25
2018-03-04T21:15:39.866Z,6.40
2018-03-04T21:18:08.330Z,6.28
2018-03-04T21:20:36.855Z,6.47
2018-03-04T21:23:05.335Z,6.52
2018-03-04T21:25:33.795Z,6.41
2018-03-04T21:28:02.300Z,6.53
2018-03-04T21:30:31.534Z,6.49
2018-03-04T21:33:00.130Z,6.41
2018-03-04T21:35:28.607Z,6.60
2018-03-04T21:37:57.380Z,6.61
2018-03-04T21:40:25.877Z,6.48
2018-03-04T21:42:54.342Z,6.56
2018-03-04T21:45:23.083Z,6.65
2018-03-04T21:47:51.618Z,6.71
2018-03-04T21:50:20.122Z,6.75
2018-03-04T21:52:48.582Z,6.80
2018-03-04T21:55:17.043Z,6.77
2018-03-04T21:57:45.545Z,6.76
2018-03-04T22:00:13.995Z,6.73
2018-03-04T22:02:43.238Z,6.66
2018-03-04T22:05:11.746Z,6.74
2018-03-04T22:07:40.194Z,6.81
2018-03-04T22:10:08.690Z,6.78
2018-03-04T22:12:37.150Z,6.82
2018-03-04T22:15:05.643Z,6.85
2018-03-04T22:20:06.630Z,6.82
2018-03-04T22:22:35.398Z,6.75
2018-03-04T22:25:03.890Z,6.76
2018-03-04T22:27:32.358Z,6.79
2018-03-04T22:30:00.850Z,6.74
2018-03-04T22:32:29.360Z,6.79
2018-03-04T22:34:57.814Z,6.75
2018-03-04T22:37:26.286Z,6.79
2018-03-04T22:39:55.074Z,6.73
2018-03-04T22:42:23.534Z,6.70
2018-03-04T22:44:52.023Z,6.69
2018-03-04T22:47:20.780Z,6.67
2018-03-04T22:49:49.222Z,6.70
2018-03-04T22:52:18.561Z,6.68
2018-03-04T22:54:47.314Z,6.62
2018-03-04T22:57:15.811Z,6.58
2018-03-04T22:59:44.313Z,6.64
2018-03-04T23:02:13.010Z,6.66
2018-03-04T23:04:41.486Z,6.67
2018-03-04T23:07:09.996Z,6.69
2018-03-04T23:09:38.554Z,6.69
2018-03-04T23:12:07.014Z,6.73
2018-03-04T23:14:35.512Z,6.74
2018-03-04T23:17:03.998Z,6.73
2018-03-04T23:19:32.491Z,6.71
2018-03-04T23:22:00.943Z,6.57
2018-03-04T23:24:29.436Z,6.73
2018-03-04T23:26:57.897Z,6.74
2018-03-04T23:29:26.381Z,6.76
2018-03-04T23:31:54.826Z,6.76
2018-03-04T23:34:23.317Z,6.84
2018-03-04T23:36:55.422Z,6.83
2018-03-04T23:39:23.902Z,6.81
2018-03-04T23:44:24.867Z,6.74
2018-03-04T23:49:26.330Z,6.79
2018-03-04T23:51:54.822Z,6.82
2018-03-04T23:54:23.302Z,6.76
2018-03-04T23:56:51.727Z,6.78
2018-03-04T23:59:20.210Z,6.70
